Time;durP1;ratioP1;P1;durP2;ratioP2;P2;SDS_P1;SDS_P2;PMS_P1;PMS_P2;Temp;Humidity;BMP_temperature;BMP_pressure;BME280_temperature;BME280_humidity;BME280_pressure;Samples;Min_cycle;Max_cycle;Signal;HPM_P1;HPM_P2
2022/10/20 01:03:23;;;;;;;;;;;;;;;7.84;100.00;100898.09;5157884;23;19921;-80
2022/10/20 01:05:48;;;;;;;;;;;;;;;7.74;100.00;100893.38;5026147;28;19924;-81
2022/10/20 01:08:13;;;;;;;;;;;;;;;7.73;100.00;100884.28;5010549;28;19917;-81
2022/10/20 01:10:41;;;;;;;;;;;;;;;7.71;100.00;100883.13;4993878;28;20012;-81
2022/10/20 01:13:12;;;;;;;;;;;;;;;7.75;100.00;100881.16;4993362;28;19909;-80
2022/10/20 01:15:38;;;;;;;;;;;;;;;7.77;100.00;100873.22;5010540;28;20392;-81
2022/10/20 01:18:05;;;;;;;;;;;;;;;7.74;100.00;100879.56;5013573;28;20000;-83
2022/10/20 01:20:50;;;;;;;;;;;;;;;7.62;100.00;100891.03;5029149;28;19949;-81
2022/10/20 01:23:31;;;;;;;;;;;;;;;7.57;100.00;100889.44;5033535;28;20497;-81
2022/10/20 01:25:56;;;;;;;;;;;;;;;7.58;100.00;100888.25;5033804;28;20055;-81
2022/10/20 01:28:24;;;;;;;;;;;;;;;7.58;100.00;100895.75;5034967;28;20381;-81
2022/10/20 01:30:52;;;;;;;;;;;;;;;7.52;100.00;100889.06;5050380;28;19924;-82
2022/10/20 01:33:23;;;;;;;;;;;;;;;7.48;100.00;100892.59;5050084;28;20390;-82
2022/10/20 01:36:07;;;;;;;;;;;;;;;7.46;100.00;100897.75;5034247;28;19917;-82
2022/10/20 01:38:38;;;;;;;;;;;;;;;7.54;100.00;100900.50;5020659;28;19917;-81
2022/10/20 01:41:03;;;;;;;;;;;;;;;7.48;100.00;100892.59;5013837;28;19918;-81
2022/10/20 01:43:29;;;;;;;;;;;;;;;7.40;100.00;100879.97;5013380;28;20280;-81
2022/10/20 01:45:55;;;;;;;;;;;;;;;7.38;100.00;100876.06;5013638;28;19975;-81
2022/10/20 01:48:21;;;;;;;;;;;;;;;7.36;100.00;100879.19;5014637;28;20338;-81
2022/10/20 01:50:47;;;;;;;;;;;;;;;7.29;100.00;100884.72;5014012;28;19917;-82
2022/10/20 01:53:12;;;;;;;;;;;;;;;7.28;100.00;100883.13;5013246;28;19935;-81
2022/10/20 01:55:38;;;;;;;;;;;;;;;7.33;100.00;100882.75;5013774;28;20000;-82
2022/10/20 01:58:06;;;;;;;;;;;;;;;7.35;100.00;100894.19;5014461;28;19916;-81
2022/10/20 02:00:31;;;;;;;;;;;;;;;7.36;100.00;100904.03;5030030;28;20413;-81
2022/10/20 02:02:57;;;;;;;;;;;;;;;7.38;100.00;100907.19;5009320;28;19917;-81
2022/10/20 02:05:29;;;;;;;;;;;;;;;7.30;100.00;100896.56;4993835;28;20373;-81
2022/10/20 02:07:59;;;;;;;;;;;;;;;7.19;100.00;100888.28;5009886;28;19918;-81
2022/10/20 02:10:28;;;;;;;;;;;;;;;7.18;100.00;100896.94;4997964;28;19965;-81
2022/10/20 02:12:55;;;;;;;;;;;;;;;7.22;100.00;100893.00;4996315;28;19918;-81
2022/10/20 02:15:22;;;;;;;;;;;;;;;7.23;100.00;100882.75;5013321;28;20380;-81
2022/10/20 02:17:48;;;;;;;;;;;;;;;7.22;100.00;100892.22;5013240;28;19928;-81
2022/10/20 02:20:13;;;;;;;;;;;;;;;7.25;100.00;100888.66;5012708;28;20312;-81
2022/10/20 02:22:39;;;;;;;;;;;;;;;7.14;100.00;100885.91;5012937;28;20392;-81
2022/10/20 02:25:04;;;;;;;;;;;;;;;7.06;100.00;100881.56;5012961;28;19924;-81
2022/10/20 02:46:11;;;;;;;;;;;;;;;6.97;100.00;100889.44;4991972;28;19929;-85
2022/10/20 02:48:37;;;;;;;;;;;;;;;7.01;100.00;100893.78;4993606;28;19918;-85
2022/10/20 02:51:04;;;;;;;;;;;;;;;7.03;100.00;100894.19;4993429;28;19957;-85
2022/10/20 02:53:29;;;;;;;;;;;;;;;7.10;100.00;100887.88;4975862;28;19928;-85
2022/10/20 02:55:54;;;;;;;;;;;;;;;7.20;100.00;100887.06;4993123;28;20343;-85
2022/10/20 02:58:20;;;;;;;;;;;;;;;7.32;100.00;100886.69;5014742;23;19929;-80
2022/10/20 03:00:45;;;;;;;;;;;;;;;7.45;100.00;100890.63;4967932;28;20020;-81
2022/10/20 03:03:10;;;;;;;;;;;;;;;7.55;100.00;100893.78;5005863;28;19917;-80
2022/10/20 03:05:40;;;;;;;;;;;;;;;7.54;100.00;100881.16;4992566;28;19925;-80
2022/10/20 03:08:06;;;;;;;;;;;;;;;7.54;100.00;100881.16;4993741;28;20033;-81
2022/10/20 03:10:32;;;;;;;;;;;;;;;7.44;100.00;100874.50;4992692;28;20384;-80
2022/10/20 03:12:57;;;;;;;;;;;;;;;7.41;100.00;100887.09;4993776;28;19914;-81
2022/10/20 03:15:22;;;;;;;;;;;;;;;7.41;100.00;100887.09;4993676;28;19913;-80
2022/10/20 03:17:48;;;;;;;;;;;;;;;7.08;100.00;100873.66;4993671;28;19925;-81
2022/10/20 03:20:13;;;;;;;;;;;;;;;7.13;100.00;100873.28;4993309;28;20507;-83
2022/10/20 03:22:38;;;;;;;;;;;;;;;7.16;100.00;100875.25;4992177;28;19918;-81
2022/10/20 03:25:04;;;;;;;;;;;;;;;7.12;100.00;100885.50;4976059;28;19913;-80
2022/10/20 03:27:29;;;;;;;;;;;;;;;7.09;100.00;100886.28;4992221;28;20021;-81
2022/10/20 03:29:55;;;;;;;;;;;;;;;7.12;100.00;100888.25;4993483;28;19968;-80
2022/10/20 03:32:20;;;;;;;;;;;;;;;7.16;100.00;100896.56;4993380;28;20007;-82
2022/10/20 03:34:45;;;;;;;;;;;;;;;7.25;100.00;100894.97;4992009;28;20373;-80
2022/10/20 03:37:11;;;;;;;;;;;;;;;7.28;100.00;100894.19;4993293;28;20373;-83
2022/10/20 03:39:36;;;;;;;;;;;;;;;7.32;100.00;100894.22;4987414;23;19926;-77
2022/10/20 03:42:01;;;;;;;;;;;;;;;7.42;100.00;100885.91;4944730;29;19952;-78
2022/10/20 03:44:27;;;;;;;;;;;;;;;7.52;100.00;100891.84;4953511;29;19929;-77
2022/10/20 03:46:52;;;;;;;;;;;;;;;7.55;100.00;100891.03;4954842;29;19919;-77
2022/10/20 03:49:17;;;;;;;;;;;;;;;7.64;100.00;100897.75;4954507;29;19960;-77
2022/10/20 03:51:43;;;;;;;;;;;;;;;7.66;100.00;100902.84;4954491;29;20021;-78
2022/10/20 03:54:08;;;;;;;;;;;;;;;7.68;100.00;100901.28;4954201;29;19966;-78
2022/10/20 03:56:34;;;;;;;;;;;;;;;7.67;100.00;100893.38;4953430;29;19922;-78
2022/10/20 03:58:59;;;;;;;;;;;;;;;7.73;100.00;100894.53;4954495;29;20346;-91
2022/10/20 04:01:30;;;;;;;;;;;;;;;7.80;100.00;100897.31;4954691;28;20407;-91
2022/10/20 04:03:55;;;;;;;;;;;;;;;7.87;100.00;100891.78;4953398;29;19918;-91
2022/10/20 04:06:21;;;;;;;;;;;;;;;7.94;100.00;100886.22;4954470;28;19985;-91
2022/10/20 04:08:46;;;;;;;;;;;;;;;8.01;100.00;100888.97;4954117;29;20380;-91
2022/10/20 04:11:11;;;;;;;;;;;;;;;8.09;100.00;100887.75;4954210;28;20406;-92
2022/10/20 04:13:37;;;;;;;;;;;;;;;8.06;100.00;100883.03;4955288;29;20392;-91
2022/10/20 04:16:02;;;;;;;;;;;;;;;8.04;100.00;100879.91;4954973;29;20447;-78
2022/10/20 04:18:28;;;;;;;;;;;;;;;8.06;100.00;100882.25;4954121;29;19925;-78
2022/10/20 04:20:53;;;;;;;;;;;;;;;8.12;100.00;100878.69;4954068;29;19918;-78
2022/10/20 04:23:18;;;;;;;;;;;;;;;8.23;100.00;100890.47;4953731;29;19919;-78
2022/10/20 04:25:47;;;;;;;;;;;;;;;8.27;100.00;100888.50;4954053;29;19928;-78
2022/10/20 04:28:17;;;;;;;;;;;;;;;8.34;100.00;100882.97;4953773;28;19918;-78
2022/10/20 04:30:42;;;;;;;;;;;;;;;8.37;100.00;100882.16;4953983;28;19918;-78
2022/10/20 04:33:08;;;;;;;;;;;;;;;8.39;100.00;100877.03;4953868;29;19973;-92
2022/10/20 04:35:33;;;;;;;;;;;;;;;8.42;100.00;100884.50;4954280;28;19965;-78
2022/10/20 04:37:58;;;;;;;;;;;;;;;8.40;100.00;100881.38;4953348;29;20380;-78
2022/10/20 04:40:24;;;;;;;;;;;;;;;8.34;100.00;100882.97;4985855;28;20387;-78
2022/10/20 04:42:49;;;;;;;;;;;;;;;8.32;100.00;100890.88;4992355;28;20405;-78
2022/10/20 04:45:14;;;;;;;;;;;;;;;8.30;100.00;100884.94;4974962;28;20012;-78
2022/10/20 04:47:40;;;;;;;;;;;;;;;8.28;100.00;100884.56;4992200;28;19917;-78
2022/10/20 04:50:05;;;;;;;;;;;;;;;8.28;100.00;100873.50;4992256;28;19968;-78
2022/10/20 04:52:31;;;;;;;;;;;;;;;8.29;100.00;100886.13;4991855;28;20004;-78
2022/10/20 04:54:56;;;;;;;;;;;;;;;8.31;100.00;100894.03;4992419;28;19987;-92
2022/10/20 04:57:21;;;;;;;;;;;;;;;8.33;100.00;100880.63;4992305;28;19918;-92
2022/10/20 04:59:47;;;;;;;;;;;;;;;8.35;100.00;100895.59;4992124;28;20401;-91
2022/10/20 05:02:12;;;;;;;;;;;;;;;8.34;100.00;100894.03;4991832;28;19917;-92
2022/10/20 05:04:37;;;;;;;;;;;;;;;8.31;100.00;100892.06;4992444;28;19928;-92
2022/10/20 05:07:03;;;;;;;;;;;;;;;8.27;100.00;100899.56;4992205;28;19917;-91
2022/10/20 05:09:28;;;;;;;;;;;;;;;8.29;100.00;100897.19;4991884;28;20004;-92
2022/10/20 05:11:53;;;;;;;;;;;;;;;8.31;100.00;100894.81;4991051;28;19926;-92
2022/10/20 05:14:19;;;;;;;;;;;;;;;8.27;100.00;100899.56;4992113;28;19918;-78
2022/10/20 05:16:44;;;;;;;;;;;;;;;8.23;100.00;100898.78;4992032;28;19917;-78
2022/10/20 05:19:10;;;;;;;;;;;;;;;8.27;100.00;100893.22;4991602;28;19917;-78
2022/10/20 05:21:35;;;;;;;;;;;;;;;8.25;100.00;100893.63;4991994;28;19991;-78
2022/10/20 05:24:01;;;;;;;;;;;;;;;8.23;100.00;100914.56;4991665;28;19925;-78
2022/10/20 05:26:28;;;;;;;;;;;;;;;8.22;100.00;100899.97;4992155;28;19921;-78
2022/10/20 05:28:53;;;;;;;;;;;;;;;8.14;100.00;100901.16;4974725;28;19918;-76
2022/10/20 05:31:19;;;;;;;;;;;;;;;8.16;100.00;100903.53;4991936;28;19972;-76
2022/10/20 05:33:46;;;;;;;;;;;;;;;8.12;100.00;100908.28;4992860;28;20446;-92
2022/10/20 05:36:11;;;;;;;;;;;;;;;8.04;100.00;100906.75;4959243;28;20393;-91
2022/10/20 05:38:37;;;;;;;;;;;;;;;7.99;100.00;100913.44;4992482;28;19918;-92
2022/10/20 05:41:06;;;;;;;;;;;;;;;8.00;100.00;100915.03;4992186;28;20041;-92
2022/10/20 05:43:31;;;;;;;;;;;;;;;7.98;100.00;100909.09;4992469;28;19922;-91
2022/10/20 05:45:57;;;;;;;;;;;;;;;7.93;100.00;100920.56;4975406;28;19929;-92
2022/10/20 05:48:22;;;;;;;;;;;;;;;7.84;100.00;100922.97;4992739;28;19917;-91
2022/10/20 05:50:47;;;;;;;;;;;;;;;7.81;100.00;100932.81;4993293;28;19910;-92
2022/10/20 05:53:13;;;;;;;;;;;;;;;7.79;100.00;100929.66;4991482;28;20311;-77
2022/10/20 05:55:38;;;;;;;;;;;;;;;7.78;100.00;100928.09;4974556;28;19918;-77
2022/10/20 05:58:03;;;;;;;;;;;;;;;7.74;100.00;100932.03;4991432;28;19965;-78
2022/10/20 06:00:30;;;;;;;;;;;;;;;7.71;100.00;100936.38;4991931;28;20024;-77
2022/10/20 06:02:55;;;;;;;;;;;;;;;7.79;100.00;100934.41;4993500;28;19914;-77
2022/10/20 06:05:21;;;;;;;;;;;;;;;7.84;100.00;100945.06;4995348;28;19918;-78
2022/10/20 06:07:46;;;;;;;;;;;;;;;7.83;100.00;100947.03;4995430;28;20390;-78
2022/10/20 06:10:12;;;;;;;;;;;;;;;7.82;100.00;100942.69;4977761;28;19964;-78
2022/10/20 06:12:37;;;;;;;;;;;;;;;7.89;100.00;100941.88;4997205;28;19981;-93
2022/10/20 06:15:02;;;;;;;;;;;;;;;7.98;100.00;100931.22;4979593;28;20009;-92
2022/10/20 06:17:28;;;;;;;;;;;;;;;8.10;100.00;100939.06;4996236;28;19914;-91
2022/10/20 06:19:53;;;;;;;;;;;;;;;8.27;100.00;100943.78;4998156;28;19918;-93
2022/10/20 06:22:18;;;;;;;;;;;;;;;8.35;100.00;100948.13;4996270;28;19922;-94
2022/10/20 06:24:44;;;;;;;;;;;;;;;8.54;100.00;100951.59;5000461;28;19917;-91
2022/10/20 06:27:09;;;;;;;;;;;;;;;8.69;100.00;100961.44;5002064;28;19953;-91
2022/10/20 06:29:34;;;;;;;;;;;;;;;8.82;100.00;100952.28;5000957;28;19925;-78
2022/10/20 06:32:00;;;;;;;;;;;;;;;9.06;100.00;100953.31;4994869;28;19914;-77
2022/10/20 06:34:25;;;;;;;;;;;;;;;9.23;100.00;100948.88;4994321;28;19975;-78
2022/10/20 06:36:50;;;;;;;;;;;;;;;9.41;100.00;100954.28;4994099;28;19918;-77
2022/10/20 06:39:17;;;;;;;;;;;;;;;9.44;100.00;100950.69;4993613;28;19918;-77
2022/10/20 06:41:42;;;;;;;;;;;;;;;9.37;100.00;100957.09;4994509;28;19918;-77
2022/10/20 06:44:17;;;;;;;;;;;;;;;9.29;100.00;100958.34;4978513;28;19968;-77
2022/10/20 06:46:42;;;;;;;;;;;;;;;9.31;100.00;100956.72;4994719;28;20007;-77
2022/10/20 06:49:08;;;;;;;;;;;;;;;9.35;100.00;100951.94;4996136;28;20394;-90
2022/10/20 06:51:34;;;;;;;;;;;;;;;9.46;100.00;100962.19;5002537;28;19921;-91
2022/10/20 06:54:00;;;;;;;;;;;;;;;9.42;100.00;100961.41;4997307;28;19918;-94
2022/10/20 06:56:27;;;;;;;;;;;;;;;9.41;100.00;100951.53;4987129;28;19945;-91
2022/10/20 06:58:53;;;;;;;;;;;;;;;9.33;100.00;100953.56;4999040;28;19920;-92
2022/10/20 07:01:19;;;;;;;;;;;;;;;9.11;100.00;100946.56;4985148;28;20262;-92
2022/10/20 07:03:46;;;;;;;;;;;;;;;9.11;100.00;100952.13;4977909;28;20457;-91
2022/10/20 07:06:15;;;;;;;;;;;;;;;9.33;100.00;100957.13;4973978;28;19918;-91
2022/10/20 07:08:40;;;;;;;;;;;;;;;9.54;100.00;100949.84;4972993;28;19926;-76
2022/10/20 07:11:07;;;;;;;;;;;;;;;9.83;100.00;100948.38;4982228;28;19922;-76
2022/10/20 07:13:33;;;;;;;;;;;;;;;9.98;100.00;100949.84;4974502;28;19965;-77
2022/10/20 07:15:58;;;;;;;;;;;;;;;10.14;100.00;100946.53;4991886;28;19972;-77
2022/10/20 07:18:24;;;;;;;;;;;;;;;10.35;100.00;100953.84;4991516;28;19921;-77
2022/10/20 07:20:50;;;;;;;;;;;;;;;10.61;100.00;100953.13;4991799;28;20358;-77
2022/10/20 07:23:15;;;;;;;;;;;;;;;10.81;100.00;100944.94;4991219;28;19937;-77
2022/10/20 07:25:41;;;;;;;;;;;;;;;10.96;100.00;100958.22;4993038;28;19941;-77
2022/10/20 07:28:06;;;;;;;;;;;;;;;11.24;100.00;100959.84;4993280;28;19917;-77
2022/10/20 07:30:31;;;;;;;;;;;;;;;11.56;100.00;100962.13;4976253;28;20012;-77
2022/10/20 07:32:57;;;;;;;;;;;;;;;11.73;98.48;100952.72;4993218;28;20008;-78
2022/10/20 07:35:22;;;;;;;;;;;;;;;11.78;96.63;100952.25;4993015;28;19922;-77
2022/10/20 07:37:48;;;;;;;;;;;;;;;12.00;96.18;100953.44;4993324;28;19921;-77
2022/10/20 07:40:13;;;;;;;;;;;;;;;11.54;96.47;100948.63;4992532;28;20359;-77
2022/10/20 07:42:39;;;;;;;;;;;;;;;11.50;98.21;100955.44;4991820;28;19964;-77
2022/10/20 07:45:04;;;;;;;;;;;;;;;11.85;97.85;100963.22;4993988;28;19920;-92
2022/10/20 07:47:32;;;;;;;;;;;;;;;11.85;97.53;100960.44;4976093;28;19924;-77
2022/10/20 07:49:57;;;;;;;;;;;;;;;11.90;96.30;100959.19;4993210;28;19918;-77
2022/10/20 07:52:22;;;;;;;;;;;;;;;11.95;96.65;100962.28;4992584;28;19918;-77
2022/10/20 07:54:48;;;;;;;;;;;;;;;12.05;94.88;100949.41;4991096;28;20346;-76
2022/10/20 07:57:13;;;;;;;;;;;;;;;12.44;92.61;100960.56;4979219;28;20413;-77
2022/10/20 07:59:38;;;;;;;;;;;;;;;12.51;92.31;100960.41;4990338;28;19917;-77
2022/10/20 08:02:04;;;;;;;;;;;;;;;12.59;92.43;100955.50;5001093;28;20519;-77
2022/10/20 08:04:30;;;;;;;;;;;;;;;12.84;91.39;100961.34;4990092;28;19928;-78
2022/10/20 08:06:56;;;;;;;;;;;;;;;12.99;89.51;100951.44;4990884;28;20004;-91
2022/10/20 08:09:21;;;;;;;;;;;;;;;13.02;88.38;100960.97;4990922;28;19996;-91
2022/10/20 08:11:46;;;;;;;;;;;;;;;13.08;87.10;100960.00;4975980;28;19918;-95
2022/10/20 08:14:12;;;;;;;;;;;;;;;13.26;86.83;100958.84;4989660;28;19985;-92
2022/10/20 08:16:37;;;;;;;;;;;;;;;13.26;86.57;100967.22;5005672;28;19917;-93
2022/10/20 08:19:03;;;;;;;;;;;;;;;13.35;85.64;100967.38;5009015;28;20018;-93
2022/10/20 08:21:28;;;;;;;;;;;;;;;13.19;86.57;100970.94;4989585;28;19925;-91
2022/10/20 08:23:53;;;;;;;;;;;;;;;13.03;88.43;100968.88;4990649;28;19922;-92
2022/10/20 08:26:19;;;;;;;;;;;;;;;12.90;90.03;100972.75;4989670;28;19917;-77
2022/10/20 08:28:45;;;;;;;;;;;;;;;12.99;90.20;100970.16;4973012;28;19925;-77
2022/10/20 08:31:11;;;;;;;;;;;;;;;13.21;87.73;100967.72;4991451;28;19914;-77
2022/10/20 08:33:36;;;;;;;;;;;;;;;13.37;86.79;100971.31;4992458;28;19925;-77
2022/10/20 08:36:03;;;;;;;;;;;;;;;13.54;86.18;100969.34;4992803;28;19944;-77
2022/10/20 08:38:28;;;;;;;;;;;;;;;13.46;88.10;100973.50;4974839;28;19918;-76
2022/10/20 08:40:54;;;;;;;;;;;;;;;13.61;86.81;100969.16;4992595;28;19921;-76
2022/10/20 08:43:20;;;;;;;;;;;;;;;13.37;87.59;100968.53;4991895;28;19934;-90
2022/10/20 08:45:45;;;;;;;;;;;;;;;13.74;87.11;100960.88;4992804;28;19918;-91
2022/10/20 08:48:13;;;;;;;;;;;;;;;13.77;86.73;100960.00;4992735;28;19921;-92
2022/10/20 08:50:41;;;;;;;;;;;;;;;13.97;85.42;100967.03;4992675;28;19914;-91
2022/10/20 08:53:08;;;;;;;;;;;;;;;13.94;84.66;100959.56;4975514;28;19925;-92
2022/10/20 08:55:33;;;;;;;;;;;;;;;13.89;85.83;100967.66;4975736;28;19953;-90
2022/10/20 08:58:25;;;;;;;;;;;;;;;13.91;84.88;100966.00;4992597;28;19944;-92
2022/10/20 09:00:57;;;;;;;;;;;;;;;13.93;84.65;100966.34;4989583;28;19924;-92
2022/10/20 09:03:23;;;;;;;;;;;;;;;14.03;85.73;100970.84;4993486;28;19917;-77
2022/10/20 09:06:12;;;;;;;;;;;;;;;13.94;83.61;100965.13;4993554;28;20904;-78
2022/10/20 09:08:38;;;;;;;;;;;;;;;14.32;83.46;100950.56;4996205;28;19918;-78
2022/10/20 09:11:03;;;;;;;;;;;;;;;14.56;81.83;100959.53;4992886;28;20287;-77
2022/10/20 09:13:30;;;;;;;;;;;;;;;14.42;82.97;100957.91;4998969;28;19924;-78
2022/10/20 09:16:03;;;;;;;;;;;;;;;14.43;82.18;100951.09;4999985;28;19917;-77
2022/10/20 09:18:29;;;;;;;;;;;;;;;14.54;82.37;100951.59;4998508;28;19917;-78
2022/10/20 09:20:55;;;;;;;;;;;;;;;14.30;84.17;100955.81;5003849;28;19917;-93
2022/10/20 09:23:24;;;;;;;;;;;;;;;14.50;84.17;100938.94;4976789;28;20264;-77
2022/10/20 09:25:50;;;;;;;;;;;;;;;14.60;84.90;100941.44;4974417;28;19917;-77
2022/10/20 09:28:25;;;;;;;;;;;;;;;14.75;82.11;100945.38;4991512;28;20357;-77
2022/10/20 09:30:54;;;;;;;;;;;;;;;14.91;81.65;100938.94;4992071;28;20004;-77
2022/10/20 09:33:28;;;;;;;;;;;;;;;14.88;81.64;100937.78;4990728;28;19968;-77
2022/10/20 09:35:55;;;;;;;;;;;;;;;14.91;80.69;100920.16;4991921;28;19921;-78
2022/10/20 09:38:22;;;;;;;;;;;;;;;14.52;83.14;100934.47;4977053;28;19914;-92
2022/10/20 09:40:58;;;;;;;;;;;;;;;14.39;85.67;100934.47;4997232;28;19928;-78
2022/10/20 09:43:24;;;;;;;;;;;;;;;14.63;82.91;100936.97;4977632;28;20012;-78
2022/10/20 09:45:51;;;;;;;;;;;;;;;14.70;81.48;100936.78;4995368;28;20423;-78
2022/10/20 09:48:23;;;;;;;;;;;;;;;14.57;82.94;100933.94;4977921;28;20000;-78
2022/10/20 09:50:50;;;;;;;;;;;;;;;14.26;84.66;100932.81;4995324;28;19921;-78
2022/10/20 09:53:19;;;;;;;;;;;;;;;14.27;85.34;100937.19;4995067;28;20403;-78
2022/10/20 09:55:45;;;;;;;;;;;;;;;14.50;83.56;100933.38;4977744;28;19922;-77
2022/10/20 09:58:14;;;;;;;;;;;;;;;14.57;83.44;100939.53;4978016;28;20024;-77
2022/10/20 10:00:42;;;;;;;;;;;;;;;14.52;83.04;100933.72;4979665;28;19917;-93
2022/10/20 10:03:20;;;;;;;;;;;;;;;14.49;82.99;100932.56;4980645;28;19918;-93
2022/10/20 10:05:58;;;;;;;;;;;;;;;14.81;78.96;100938.00;4997986;28;20386;-92
2022/10/20 10:08:24;;;;;;;;;;;;;;;14.69;84.08;100932.41;4999558;28;19930;-96
2022/10/20 10:11:13;;;;;;;;;;;;;;;14.41;87.55;100942.38;4984132;28;20004;-90
2022/10/20 10:13:41;;;;;;;;;;;;;;;14.71;87.64;100927.97;4996616;28;19918;-91
2022/10/20 10:16:07;;;;;;;;;;;;;;;14.78;87.96;100918.56;4978803;28;19925;-91
2022/10/20 10:18:33;;;;;;;;;;;;;;;14.84;84.26;100930.78;4979973;28;19940;-76
2022/10/20 10:21:03;;;;;;;;;;;;;;;14.72;83.74;100929.50;4976731;28;20366;-77
2022/10/20 10:23:29;;;;;;;;;;;;;;;14.70;84.79;100917.22;4977274;28;19929;-76
2022/10/20 10:25:54;;;;;;;;;;;;;;;14.84;84.10;100923.16;4976099;28;20386;-77
2022/10/20 10:28:34;;;;;;;;;;;;;;;14.82;83.04;100928.41;4992656;28;20048;-76
2022/10/20 10:31:22;;;;;;;;;;;;;;;14.93;82.61;100920.50;4992747;28;19918;-76
2022/10/20 10:33:49;;;;;;;;;;;;;;;15.06;83.47;100914.91;4984906;28;19918;-77
2022/10/20 10:36:17;;;;;;;;;;;;;;;15.03;82.54;100918.59;4994709;28;19948;-77
2022/10/20 10:38:43;;;;;;;;;;;;;;;14.77;85.02;100917.00;4977292;28;19940;-91
2022/10/20 10:41:23;;;;;;;;;;;;;;;14.84;84.26;100920.34;4977510;28;19921;-90
2022/10/20 10:43:53;;;;;;;;;;;;;;;14.88;83.76;100917.47;4993948;28;19921;-92
2022/10/20 10:46:19;;;;;;;;;;;;;;;14.65;85.86;100912.19;4977452;28;19922;-91
2022/10/20 10:49:03;;;;;;;;;;;;;;;14.80;85.27;100914.09;4993826;28;19928;-91
2022/10/20 10:51:31;;;;;;;;;;;;;;;14.69;84.74;100907.28;4992285;28;19922;-89
2022/10/20 10:54:14;;;;;;;;;;;;;;;14.80;84.94;100904.97;4993688;28;20271;-93
2022/10/20 10:56:43;;;;;;;;;;;;;;;14.91;84.80;100892.22;4975305;28;20316;-93
2022/10/20 10:59:22;;;;;;;;;;;;;;;14.96;84.35;100892.91;4960409;28;19918;-92
2022/10/20 11:01:50;;;;;;;;;;;;;;;14.83;83.85;100890.88;4994361;28;19924;-92
2022/10/20 11:04:15;;;;;;;;;;;;;;;14.82;83.45;100889.31;4994476;28;20307;-93
2022/10/20 11:07:07;;;;;;;;;;;;;;;14.59;85.23;100894.41;4993394;28;19925;-95
2022/10/20 11:09:41;;;;;;;;;;;;;;;14.73;84.50;100888.41;4971340;28;20350;-93
2022/10/20 11:12:16;;;;;;;;;;;;;;;14.81;83.55;100876.56;4995675;28;19917;-92
2022/10/20 11:14:45;;;;;;;;;;;;;;;15.03;84.05;100870.31;4994896;28;20276;-77
2022/10/20 11:17:34;;;;;;;;;;;;;;;15.07;84.52;100868.19;4995052;28;19980;-94
2022/10/20 11:20:15;;;;;;;;;;;;;;;15.13;82.44;100869.19;4995340;28;19933;-92
2022/10/20 11:22:40;;;;;;;;;;;;;;;15.03;80.50;100864.75;4977028;28;20375;-95
2022/10/20 11:25:25;;;;;;;;;;;;;;;15.11;81.42;100866.84;4997450;28;19918;-93
2022/10/20 11:27:50;;;;;;;;;;;;;;;15.46;81.48;100859.31;4978069;28;20272;-94
2022/10/20 11:30:20;;;;;;;;;;;;;;;15.69;79.89;100852.59;4994942;28;19982;-93
2022/10/20 11:32:48;;;;;;;;;;;;;;;15.69;77.65;100856.13;4996300;28;19917;-77
2022/10/20 11:35:16;;;;;;;;;;;;;;;15.80;77.42;100850.97;4993730;28;20299;-93
2022/10/20 11:37:41;;;;;;;;;;;;;;;15.52;77.16;100824.00;4993022;28;19963;-95
2022/10/20 11:40:10;;;;;;;;;;;;;;;15.29;77.87;100838.31;4991783;28;19918;-92
2022/10/20 11:42:54;;;;;;;;;;;;;;;15.24;78.18;100830.50;4996424;28;19917;-94
2022/10/20 11:45:28;;;;;;;;;;;;;;;15.23;78.37;100826.94;5005565;28;20391;-94
2022/10/20 11:47:56;;;;;;;;;;;;;;;15.43;78.18;100817.50;4977310;28;20303;-95
2022/10/20 11:50:22;;;;;;;;;;;;;;;15.73;76.51;100823.22;4974463;28;19918;-93
2022/10/20 11:52:54;;;;;;;;;;;;;;;15.89;72.99;100819.50;4978385;28;19942;-93
2022/10/20 11:55:26;;;;;;;;;;;;;;;15.94;72.64;100816.09;5003287;28;20056;-76
2022/10/20 11:57:51;;;;;;;;;;;;;;;15.88;70.91;100820.72;4996476;28;20023;-76
2022/10/20 12:00:37;;;;;;;;;;;;;;;15.81;71.85;100813.34;4995472;28;19980;-76
2022/10/20 12:03:05;;;;;;;;;;;;;;;15.57;72.15;100812.22;4969855;28;20371;-77
2022/10/20 12:05:36;;;;;;;;;;;;;;;15.69;72.70;100805.78;5004186;28;19917;-77
2022/10/20 12:08:20;;;;;;;;;;;;;;;15.86;71.08;100806.41;4993063;28;20410;-77
2022/10/20 12:10:49;;;;;;;;;;;;;;;16.03;71.51;100802.19;4983288;28;20041;-78
2022/10/20 12:13:33;;;;;;;;;;;;;;;15.97;69.91;100783.63;4990395;28;20448;-95
2022/10/20 12:15:59;;;;;;;;;;;;;;;16.11;69.75;100777.50;4999616;28;19921;-92
2022/10/20 12:18:26;;;;;;;;;;;;;;;16.27;70.72;100777.28;5001821;28;19977;-93
2022/10/20 12:21:05;;;;;;;;;;;;;;;16.29;68.99;100758.81;4978727;28;19922;-90
2022/10/20 12:23:45;;;;;;;;;;;;;;;16.41;68.24;100765.56;4979529;28;19957;-93
2022/10/20 12:26:31;;;;;;;;;;;;;;;16.49;67.71;100761.22;4995667;28;20362;-93
2022/10/20 12:29:02;;;;;;;;;;;;;;;16.76;68.28;100757.78;4998009;28;19918;-93
2022/10/20 12:31:46;;;;;;;;;;;;;;;16.84;67.01;100758.25;5003910;28;19925;-94
2022/10/20 12:34:23;;;;;;;;;;;;;;;16.99;67.12;100753.63;4991405;28;20388;-77
2022/10/20 12:36:48;;;;;;;;;;;;;;;16.89;67.66;100749.25;4991861;28;20298;-77
2022/10/20 12:39:23;;;;;;;;;;;;;;;16.98;67.02;100752.88;4991386;28;20022;-78
2022/10/20 12:42:03;;;;;;;;;;;;;;;17.35;66.18;100759.28;4974231;28;20390;-77
2022/10/20 12:44:29;;;;;;;;;;;;;;;17.46;64.26;100759.63;4978816;28;19952;-77
2022/10/20 12:47:02;;;;;;;;;;;;;;;17.58;64.82;100749.50;4975824;28;20600;-78
2022/10/20 12:49:34;;;;;;;;;;;;;;;17.19;64.12;100753.97;4973884;28;20457;-77
2022/10/20 12:52:00;;;;;;;;;;;;;;;16.82;66.59;100755.94;4973547;28;19918;-95
2022/10/20 12:54:33;;;;;;;;;;;;;;;16.95;67.58;100741.78;4991838;28;19969;-93
2022/10/20 12:57:00;;;;;;;;;;;;;;;17.18;65.83;100744.81;4989845;28;20394;-93
2022/10/20 12:59:28;;;;;;;;;;;;;;;17.18;64.87;100738.41;4993766;28;20418;-95
2022/10/20 13:02:09;;;;;;;;;;;;;;;16.72;66.93;100735.50;5006903;28;20402;-93
2022/10/20 13:05:07;;;;;;;;;;;;;;;16.53;68.37;100728.25;4999459;28;20005;-94
2022/10/20 13:07:44;;;;;;;;;;;;;;;16.37;69.43;100734.09;4968447;28;19925;-93
2022/10/20 13:10:25;;;;;;;;;;;;;;;16.31;68.92;100728.31;4999603;28;19921;-92
2022/10/20 13:12:51;;;;;;;;;;;;;;;16.20;69.52;100733.56;5000988;28;19917;-93
2022/10/20 13:15:16;;;;;;;;;;;;;;;16.19;69.36;100731.22;4984856;28;19924;-93
2022/10/20 13:17:47;;;;;;;;;;;;;;;16.11;69.96;100727.91;4982418;28;20417;-91
2022/10/20 13:20:31;;;;;;;;;;;;;;;15.97;70.41;100719.28;4975606;28;20380;-93
2022/10/20 13:22:57;;;;;;;;;;;;;;;15.99;70.18;100730.78;4976221;28;20339;-91
2022/10/20 13:25:28;;;;;;;;;;;;;;;16.05;70.47;100720.56;4986051;28;19917;-94
2022/10/20 13:28:13;;;;;;;;;;;;;;;16.10;70.06;100717.16;5000814;28;19991;-93
2022/10/20 13:30:49;;;;;;;;;;;;;;;16.18;69.61;100707.25;4984707;28;21406;-77
2022/10/20 13:33:23;;;;;;;;;;;;;;;16.34;69.57;100712.59;4986331;28;19918;-77
2022/10/20 13:35:52;;;;;;;;;;;;;;;16.46;70.08;100706.13;4975518;28;19924;-77
2022/10/20 13:38:30;;;;;;;;;;;;;;;16.46;68.32;100694.94;4978545;28;19960;-77
2022/10/20 13:41:01;;;;;;;;;;;;;;;16.42;68.73;100713.13;4995445;28;19960;-78
2022/10/20 13:43:45;;;;;;;;;;;;;;;16.34;68.61;100715.41;4978332;28;19918;-77
2022/10/20 13:46:16;;;;;;;;;;;;;;;16.24;69.71;100717.41;4995634;28;19922;-77
2022/10/20 13:48:41;;;;;;;;;;;;;;;16.16;69.96;100716.13;4995283;28;19964;-92
2022/10/20 13:51:23;;;;;;;;;;;;;;;15.94;70.31;100720.19;4995193;28;20323;-92
2022/10/20 13:53:49;;;;;;;;;;;;;;;15.86;71.88;100725.25;4992621;28;19972;-93
2022/10/20 13:56:14;;;;;;;;;;;;;;;15.91;71.26;100726.69;4993170;28;19922;-94
2022/10/20 13:58:40;;;;;;;;;;;;;;;16.00;71.12;100723.97;5000147;28;19975;-94
2022/10/20 14:01:12;;;;;;;;;;;;;;;15.98;71.46;100715.22;5004815;28;19918;-94
2022/10/20 14:03:45;;;;;;;;;;;;;;;16.00;70.86;100719.16;4988027;28;20074;-93